Latest Weather Observations for Lajamanu

IDD60801

Issued at 2:01 am CST Thursday 23 November 2017 (issued every 30 minutes, with the page automatically refreshed every 10 minutes)

About weather observations | Map of weather stations | Latest weather observations for NT | Other Formats
Station Details ID: 014829 Name: LAJAMANU AIRPORT Lat: -18.33 Lon: 130.64 Height: 315.6 m
Data from the previous 72 hours. | See also: Recent months at Lajamanu
Date/Time
CST
Temp
°C
App
Temp
°C
Dew
Point
°C
Rel
Hum
%
Delta-T
°C
Wind Press
QNH
hPa
Press
MSL
hPa
Rain since
9am
mm
Dir  Spd
km/h
Gust
km/h
Spd
kts
Gust
kts
23/02:00am 25.3 26.2 18.5 66 4.4 N 11 13 6 7 1004.1 1001.6 7.2
23/01:30am 25.9 26.5 18.6 64 4.7 N 13 19 7 10 1004.1 1001.6 7.2
23/01:00am 24.8 26.1 19.4 72 3.5 NNW 11 15 6 8 1004.5 1002.0 7.2
23/12:30am 24.8 26.1 19.2 71 3.6 NNW 11 13 6 7 1005.0 1002.5 7.2
23/12:00am 25.2 26.8 19.1 69 4.0 NNW 9 15 5 8 1005.2 1002.7 7.2
 
Date/Time
CST
Temp
°C
App
Temp
°C
Dew
Point
°C
Rel
Hum
%
Delta-T
°C
Wind Press
QNH
hPa
Press
MSL
hPa
Rain since
9am
mm
Dir  Spd
km/h
Gust
km/h
Spd
kts
Gust
kts
22/11:30pm 25.6 26.1 18.3 64 4.7 NNW 13 22 7 12 1005.6 1003.1 7.2
22/11:00pm 26.0 26.4 18.2 62 5.0 NW 13 15 7 8 1005.3 1002.8 7.2
22/10:30pm 25.9 27.1 18.3 63 4.9 NW 9 13 5 7 1005.2 1002.7 7.2
22/10:00pm 26.1 26.9 18.2 61 5.1 NNW 11 15 6 8 1005.1 1002.6 7.2
22/09:30pm 26.1 26.9 18.2 61 5.1 NNW 11 17 6 9 1005.2 1002.7 7.2
22/09:00pm 26.4 25.4 17.5 58 5.7 N 19 26 10 14 1004.9 1002.4 7.2
22/08:30pm 26.9 25.3 17.4 56 6.1 N 22 33 12 18 1004.6 1002.1 7.2
22/08:00pm 28.1 27.3 17.0 51 7.0 N 17 20 9 11 1004.1 1001.6 7.2
22/07:30pm 27.1 27.1 17.3 55 6.2 N 13 19 7 10 1003.9 1001.4 7.2
22/07:00pm 27.7 24.6 16.6 50 7.0 N 28 39 15 21 1003.6 1001.1 7.2
22/06:30pm 24.7 21.8 19.3 72 3.5 N 33 56 18 30 1003.5 1001.0 7.2
22/06:21pm 26.1 23.1 16.9 57 5.8 NNE 28 56 15 30 1005.3 1002.8 1.8
22/06:20pm 27.5 24.5 16.8 52 6.7 NNE 28 54 15 29 1005.1 1002.6 1.0
22/06:18pm 30.6 26.1 13.8 35 10.2 NE 30 54 16 29 1004.6 1002.1 0.2
22/06:00pm 29.1 21.7 14.1 40 9.2 E 46 72 25 39 1003.3 1000.8 0.2
22/05:57pm 28.3 21.6 13.4 40 8.9 E 41 72 22 39 1003.3 1000.8 0.2
22/05:55pm 29.2 23.9 14.2 40 9.2 E 35 72 19 39 1003.0 1000.5 0.2
22/05:52pm 31.5 28.1 13.7 33 10.9 E 24 65 13 35 1002.5 1000.0 0.2
22/05:30pm 35.2 33.2 15.0 30 12.8 NNE 19 39 10 21 1001.8 999.3 0.2
22/05:00pm 38.3 36.6 13.5 23 15.5 NNW 15 24 8 13 1001.9 999.4 0.2
22/04:30pm 39.5 38.0 15.2 24 15.6 NNW 17 24 9 13 1002.0 999.5 0.2
22/04:00pm 38.2 37.4 14.1 24 15.2 NW 11 20 6 11 1002.5 1000.0 0.2
22/03:30pm 38.7 38.9 15.7 25 14.9 W 9 20 5 11 1003.1 1000.6 0.2
22/03:00pm 38.8 39.5 17.0 27 14.3 W 9 20 5 11 1003.6 1001.1 0.2
22/02:30pm 37.6 38.1 16.5 28 13.7 W 9 24 5 13 1003.9 1001.4 0.2
22/02:00pm 36.9 36.4 17.0 31 13.0 NW 15 24 8 13 1004.3 1001.8 0.2
22/01:30pm 36.3 35.0 15.9 29 13.1 NW 17 28 9 15 1004.7 1002.2 0.2
22/01:00pm 36.4 35.7 16.5 30 12.9 WNW 15 22 8 12 1005.1 1002.6 0.2
22/12:30pm 36.0 35.2 16.2 31 12.8 W 15 24 8 13 1005.8 1003.4 0.2
22/12:00pm 36.3 35.8 17.9 33 12.1 W 17 24 9 13 1006.3 1003.8 0.2
22/11:30am 35.2 34.2 16.5 33 12.1 W 17 28 9 15 1007.0 1004.5 0.2
22/11:00am 34.6 34.3 16.4 33 11.7 WNW 13 19 7 10 1007.2 1004.7 0.2
22/10:30am 33.6 34.0 17.3 37 10.6 W 11 20 6 11 1007.3 1004.8 0.2
22/10:00am 32.9 33.2 17.1 39 10.2 WNW 11 17 6 9 1007.4 1004.9 0.2
22/09:30am 31.5 32.1 17.8 44 8.9 W 11 15 6 8 1007.5 1005.0 0.2
22/09:00am 30.5 31.5 18.6 49 7.8 W 11 17 6 9 1007.3 1004.8 31.4
22/08:30am 29.1 29.5 18.2 51 7.1 W 13 19 7 10 1007.0 1004.5 31.4
22/08:00am 27.8 28.1 18.8 58 5.9 W 15 22 8 12 1007.0 1004.5 31.4
22/07:30am 26.7 27.8 18.8 62 5.1 WNW 11 17 6 9 1006.7 1004.2 31.4
22/07:00am 25.6 26.9 19.3 68 4.1 WNW 11 19 6 10 1006.4 1003.9 31.4
22/06:30am 24.2 25.5 19.3 74 3.2 WNW 11 15 6 8 1006.2 1003.7 31.4
22/06:00am 24.1 25.1 19.4 75 3.1 WNW 13 17 7 9 1006.2 1003.7 31.4
22/05:30am 24.4 25.3 19.2 73 3.4 WNW 13 20 7 11 1006.0 1003.6 31.4
22/05:00am 24.9 25.9 19.5 72 3.5 WNW 13 19 7 10 1005.8 1003.4 31.4
22/04:30am 25.0 25.6 18.7 68 4.1 WNW 13 20 7 11 1005.4 1002.9 31.4
22/04:00am 25.0 24.0 18.0 65 4.5 NW 20 30 11 16 1005.4 1002.9 31.4
22/03:30am 23.7 23.8 18.4 72 3.4 NNW 15 20 8 11 1005.4 1002.9 31.4
22/03:00am 23.2 23.6 18.1 73 3.2 WNW 13 20 7 11 1005.4 1002.9 31.4
22/02:30am 23.3 23.3 18.2 73 3.2 NW 15 22 8 12 1005.2 1002.7 31.4
22/02:00am 23.0 23.0 19.0 78 2.6 NNW 17 20 9 11 1005.1 1002.6 31.4
22/01:30am 23.5 24.0 19.2 77 2.8 W 15 22 8 12 1006.8 1004.3 31.4
22/01:00am 24.0 21.1 20.1 79 2.6 NNW 35 48 19 26 1005.4 1002.9 31.4
22/12:50am 23.9 21.6 20.6 82 2.2 NNW 33 54 18 29 1005.5 1003.0 31.4
22/12:30am 23.5 21.5 20.8 85 1.8 N 32 43 17 23 1006.6 1004.1 31.4
22/12:22am 23.7 22.5 20.8 84 1.9 N 28 39 15 21 1006.8 1004.3 31.0
22/12:00am 25.9 26.1 20.2 71 3.8 ESE 19 28 10 15 1008.8 1006.4 20.8
 
Date/Time
CST
Temp
°C
App
Temp
°C
Dew
Point
°C
Rel
Hum
%
Delta-T
°C
Wind Press
QNH
hPa
Press
MSL
hPa
Rain since
9am
mm
Dir  Spd
km/h
Gust
km/h
Spd
kts
Gust
kts
21/11:44pm 26.5 25.9 20.6 70 3.9 S 24 37 13 20 1009.1 1006.7 20.6
21/11:30pm 25.8 26.2 20.6 73 3.5 N 19 28 10 15 1007.1 1004.6 20.6
21/11:00pm 26.7 26.3 20.1 67 4.4 N 22 37 12 20 1007.2 1004.7 20.6
21/10:30pm 27.4 26.9 20.0 64 4.9 N 22 32 12 17 1006.8 1004.3 20.6
21/10:00pm 27.4 28.0 21.0 68 4.3 N 19 24 10 13 1007.0 1004.5 20.6
21/09:30pm 27.9 28.2 20.7 65 4.8 N 20 30 11 16 1006.7 1004.2 20.6
21/09:00pm 28.0 29.4 20.3 63 5.1 NW 13 19 7 10 1006.3 1003.8 20.6
21/08:30pm 28.3 29.9 20.8 63 5.0 NW 13 19 7 10 1005.8 1003.4 20.6
21/08:00pm 27.9 30.3 22.2 71 3.9 NW 13 17 7 9 1005.0 1002.5 20.6
21/07:30pm 27.5 31.0 22.9 76 3.2 NNW 9 11 5 6 1004.5 1002.0 20.6
21/07:00pm 27.9 31.2 22.6 73 3.6 NNW 9 11 5 6 1004.2 1001.7 20.6
21/06:30pm 28.9 31.2 21.4 64 5.1 NNW 11 15 6 8 1004.5 1002.0 20.6
21/06:00pm 29.4 31.2 22.6 67 4.7 NNE 17 22 9 12 1004.6 1002.1 20.6
21/05:30pm 29.0 31.9 23.2 71 4.0 N 13 20 7 11 1004.5 1002.0 20.6
21/05:00pm 27.2 29.4 23.2 79 2.8 NNW 17 30 9 16 1005.3 1002.8 20.6
21/04:30pm 24.7 25.1 22.4 87 1.6 NNW 24 35 13 19 1005.5 1003.0 20.6
21/04:00pm 23.1 25.2 21.7 92 0.9 WNW 13 30 7 16 1006.7 1004.2 20.4
21/03:48pm 23.5 20.0 21.9 91 1.1 S 43 69 23 37 1006.8 1004.3 18.6
21/03:42pm 21.2 13.9 19.5 90 1.1 SSE 57 102 31 55 1006.4 1003.9 12.6
21/03:37pm 21.2 13.5 18.8 86 1.5 S 57 102 31 55 1005.8 1003.4 6.0
21/03:35pm 20.9 12.6 16.9 78 2.5 S 56 102 30 55 1005.5 1003.0 3.6
21/03:33pm 22.6 16.6 16.9 70 3.5 S 44 95 24 51 1004.5 1002.0 1.6
21/03:30pm 27.3 23.6 16.0 50 7.1 S 30 72 16 39 1004.7 1002.2 0.0
21/03:29pm 29.7 27.1 15.8 43 8.7 S 24 52 13 28 1004.8 1002.3 0.0
21/03:26pm 35.5 34.0 14.2 28 13.3 SSW 15 50 8 27 1005.0 1002.5 0.0
21/03:00pm 38.1 37.9 15.8 26 14.4 NW 11 20 6 11 1004.1 1001.6 0.0
21/02:30pm 38.5 37.7 15.0 25 15.0 WSW 13 26 7 14 1004.8 1002.3 0.0
21/02:00pm 38.0 37.0 15.7 26 14.3 NW 15 22 8 12 1005.5 1003.0 0.0
21/01:30pm 36.9 36.4 15.9 28 13.5 S 13 26 7 14 1006.3 1003.8 0.0
21/01:00pm 37.8 37.2 15.6 27 14.2 WNW 13 22 7 12 1006.9 1004.4 0.0
21/12:30pm 37.5 36.8 16.4 28 13.7 SW 15 22 8 12 1007.5 1005.0 0.0
21/12:00pm 36.4 36.3 16.0 29 13.1 W 11 19 6 10 1008.1 1005.6 0.0
21/11:30am 36.6 36.4 16.7 30 12.9 WSW 13 20 7 11 1008.6 1006.2 0.0
21/11:00am 35.3 34.8 17.0 33 11.9 WSW 15 28 8 15 1009.2 1006.8 0.0
21/10:30am 34.5 34.7 17.7 37 11.0 W 13 26 7 14 1009.6 1007.1 0.0
21/10:00am 33.8 33.6 17.5 38 10.6 WSW 15 22 8 12 1009.8 1007.3 0.0
21/09:30am 32.3 32.9 19.5 46 8.5 WNW 15 22 8 12 1009.7 1007.2 0.0
21/09:00am 31.2 31.0 18.5 46 8.3 WNW 17 26 9 14 1009.9 1007.4 5.4
21/08:30am 29.4 29.6 18.5 52 7.1 WNW 15 24 8 13 1009.6 1007.1 5.4
21/08:00am 30.3 29.9 18.1 48 7.9 WNW 17 28 9 15 1009.3 1006.9 5.4
21/07:30am 28.6 30.8 19.5 58 6.0 W 7 13 4 7 1009.0 1006.6 5.4
21/07:00am 27.0 29.1 20.1 66 4.6 WNW 9 15 5 8 1008.5 1006.0 5.4
21/06:30am 25.3 27.0 21.0 77 2.9 NW 13 15 7 8 1007.9 1005.4 5.4
21/06:00am 24.7 27.2 21.0 80 2.5 NW 9 11 5 6 1007.5 1005.0 5.4
21/05:30am 25.0 24.8 19.8 73 3.4 SE 20 32 11 17 1008.1 1005.6 5.2
21/05:00am 27.4 26.8 18.4 58 5.8 SE 19 33 10 18 1007.0 1004.5 5.0
21/04:30am 26.9 28.3 18.7 60 5.3 WNW 9 11 5 6 1006.2 1003.7 5.0
21/04:00am 26.8 28.1 18.4 60 5.4 WNW 9 13 5 7 1005.8 1003.4 5.0
21/03:30am 27.2 28.4 18.2 58 5.8 W 9 15 5 8 1005.9 1003.5 5.0
21/03:00am 27.7 28.8 18.1 56 6.2 WNW 9 13 5 7 1006.0 1003.6 5.0
21/02:30am 28.4 28.3 17.9 53 6.8 NW 15 24 8 13 1006.5 1004.0 5.0
21/02:00am 28.9 28.7 18.4 53 6.8 NW 17 20 9 11 1006.7 1004.2 5.0
21/01:30am 28.4 29.6 19.1 57 6.1 NW 11 15 6 8 1006.7 1004.2 5.0
21/01:00am 28.3 29.5 19.0 57 6.1 NNW 11 13 6 7 1007.1 1004.6 5.0
21/12:30am 28.7 30.3 19.1 56 6.3 NW 9 15 5 8 1007.5 1005.0 5.0
21/12:00am 29.2 30.1 18.3 51 7.1 NW 11 15 6 8 1008.0 1005.5 5.0
 
Date/Time
CST
Temp
°C
App
Temp
°C
Dew
Point
°C
Rel
Hum
%
Delta-T
°C
Wind Press
QNH
hPa
Press
MSL
hPa
Rain since
9am
mm
Dir  Spd
km/h
Gust
km/h
Spd
kts
Gust
kts
20/11:30pm 29.0 30.8 19.6 57 6.2 NNW 9 11 5 6 1008.1 1005.6 5.0
20/11:00pm 29.3 30.2 19.3 55 6.6 NNW 13 17 7 9 1008.4 1005.9 5.0
20/10:30pm 29.3 29.7 19.0 53 6.8 N 15 22 8 12 1008.7 1006.3 5.0
20/10:00pm 29.9 30.1 19.3 53 7.0 NNW 17 26 9 14 1008.1 1005.6 5.0
20/09:41pm 29.8 29.5 20.4 57 6.3 N 22 37 12 20 1007.9 1005.4 5.0
20/09:30pm 25.6 27.1 20.6 74 3.3 NNE 13 17 7 9 1007.7 1005.2 5.0
20/09:16pm 29.4 27.0 18.2 51 7.3 SSW 28 65 15 35 1007.8 1005.3 2.4
20/09:10pm 30.2 30.0 17.6 46 8.1 S 15 59 8 32 1007.3 1004.8 0.0
20/09:00pm 33.0 33.5 15.0 33 11.3 ESE 6 7 3 4 1007.1 1004.6 0.0
20/08:30pm 33.3 33.6 14.4 32 11.8 E 6 7 3 4 1006.8 1004.3 0.0
20/08:00pm 33.5 33.1 13.0 29 12.5 E 7 9 4 5 1006.3 1003.8 0.0
20/07:30pm 34.6 33.8 12.9 27 13.3 ESE 9 11 5 6 1005.9 1003.5 0.0
20/07:00pm 36.3 35.0 12.5 24 14.5 E 11 15 6 8 1005.6 1003.1 0.0
20/06:30pm 37.9 35.8 12.5 22 15.6 ESE 15 20 8 11 1005.3 1002.8 0.0
20/06:00pm 39.0 37.9 12.0 20 16.6 SSE 9 19 5 10 1005.1 1002.6 0.0
20/05:30pm 39.3 38.3 12.2 20 16.7 E 9 15 5 8 1005.1 1002.6 0.0
20/05:00pm 38.1 36.5 12.7 22 15.7 SE 13 17 7 9 1005.2 1002.7 0.0
20/04:30pm 37.9 37.4 12.5 22 15.6 E 7 13 4 7 1005.5 1003.0 0.0
20/04:00pm 37.8 37.4 12.4 22 15.6 WNW 6 11 3 6 1005.7 1003.3 0.0
20/03:30pm 37.5 37.0 12.8 22 15.3 SE 7 13 4 7 1006.2 1003.7 0.0
20/03:00pm 37.7 36.3 12.3 22 15.6 SSE 11 17 6 9 1006.6 1004.1 0.0
20/02:30pm 39.6 39.1 13.9 22 16.2 S 9 20 5 11 1007.0 1004.5 0.0
20/02:00pm 38.2 36.0 13.4 23 15.4 SW 17 22 9 12 1007.6 1005.1 0.0
20/01:30pm 37.1 35.5 13.8 25 14.6 WSW 15 28 8 15 1008.2 1005.7 0.0
20/01:00pm 36.8 36.2 14.7 26 13.9 SSW 11 24 6 13 1008.7 1006.3 0.0
20/12:30pm 36.3 36.8 16.5 31 12.8 WNW 9 17 5 9 1009.3 1006.9 0.0
20/12:00pm 34.7 35.0 17.0 35 11.5 WSW 11 19 6 10 1009.9 1007.4 0.0
20/11:30am 32.7 32.9 15.7 36 10.7 NW 9 15 5 8 1010.5 1008.0 0.0
20/11:00am 32.4 33.3 17.5 41 9.6 NW 9 13 5 7 1011.1 1008.6 0.0
20/10:30am 30.7 32.4 18.4 47 8.0 NW 7 11 4 6 1011.3 1008.8 0.0
20/10:00am 29.7 31.2 18.8 52 7.1 WNW 9 13 5 7 1011.5 1009.1 0.0
20/09:30am 27.8 30.2 20.9 66 4.6 NNW 9 11 5 6 1011.6 1009.2 0.0
20/09:00am 27.0 29.0 20.8 69 4.1 N 11 15 6 8 1011.6 1009.2 2.0
20/08:30am 26.2 29.5 21.4 75 3.2 N 6 9 3 5 1011.5 1009.1 2.0
20/08:00am 24.8 26.3 21.3 81 2.3 NW 15 20 8 11 1011.3 1008.8 2.0
20/07:30am 24.6 25.6 21.1 81 2.3 NNW 17 28 9 15 1011.5 1009.1 1.4
20/07:00am 25.8 27.6 20.4 72 3.6 NNW 11 22 6 12 1011.4 1008.9 0.8
20/06:30am 26.1 27.2 19.7 68 4.2 NNE 13 20 7 11 1010.7 1008.2 0.8
20/06:00am 26.1 28.2 19.0 65 4.6 WNW 6 9 3 5 1010.0 1007.5 0.8
20/05:30am 25.8 28.0 19.7 69 4.0 W 7 11 4 6 1009.3 1006.9 0.8
20/05:00am 25.8 28.3 19.9 70 3.9 WNW 6 7 3 4 1009.2 1006.8 0.8
20/04:30am 25.5 29.7 21.0 76 3.0 CALM 0 6 0 3 1009.3 1006.9 0.8
20/04:00am 25.5 29.0 20.3 73 3.4 SSW 2 6 1 3 1009.7 1007.2 0.8
20/03:30am 25.5 29.8 21.2 77 2.9 CALM 0 0 0 0 1010.0 1007.5 0.8
20/03:00am 25.5 28.3 20.5 74 3.3 NW 6 9 3 5 1010.1 1007.6 0.8
20/02:30am 25.5 28.0 20.3 73 3.4 NW 7 9 4 5 1010.3 1007.8 0.8

Other Formats:

Comma delimited format used in spreadsheet applications
http://www.bom.gov.au/fwo/IDD60801/IDD60801.94231.axf

JavaScript Object Notation format (JSON) in row-major order
http://www.bom.gov.au/fwo/IDD60801/IDD60801.94231.json